หน้าหลัก
METAR-TAF:

METAR-TAF

ท่าอากาศยาน :

ฮาร์บิน, จีน

ละติจูด: 45-45N, ลองจิจูด: 126-46E, ความสูง: 143 ม.

การสังเกตสภาพอากาศปัจจุบัน

รายงานได้ทำขึ้นเมื่อ 31 นาทีที่แล้ว ณ เวลา 11:00 UTC
ลม 2 นอตจากใต้/ตะวันออกเฉียงใต้
อุณหภูมิ 26°C
ความชื้น 74%
ความกดอากาศ 1010 hPa
ทัศนวิสัย 10 กม. หรือมากกว่า
ไม่มีเมฆต่ำกว่า 1,500 ม. และไม่มีเมฆคิวมูโลนิมบัส

METAR: ZYHB 141100Z 16001MPS CAVOK 26/21 Q1010 NOSIG

เวลา: 19:31 (11:31 UTC)

การพยากรณ์

รายงานได้ทำขึ้นเมื่อ 8 ชั่วโมงและ 20 นาทีที่แล้ว ณ เวลา 03:11 UTC
การพยากรณ์มีผลตั้งแต่วันที่ 14 ณ เวลา 06 UTC จนถึงวันที่ 15 ณ เวลา 06 UTC
ลม 6 นอตจากตะวันออก
ทัศนวิสัย: 6000 ม.
มีเมฆน้อยที่ความสูง 3300 ฟุต

TAF: ZYHB 140311Z 1406/1506 09003MPS 6000 FEW033 TX30/1406Z TN21/1421Z

สังเกตการณ์สภาพอากาศและพยากรณ์อากาศของสนามบินมากกว่า 4000 แห่ง (รายงาน METAR และ TAF).

สถานีที่ดูได้จะแสดงไว้ด้วยจุดสีเหลืองและสีแดงบนแผนที่.

เลื่อนเมาส์ไปเหนือจุดเพื่อดูชื่อสถานี.

แล้วคลิกเพื่อดูสังเกตการณ์และการพยากรณ์สภาพอากาศ.

ในการเปลี่ยนแผนที่: คลิกที่ปุ่มสีเขียวที่มีกากบาทสีดำเพื่อซูมเข้า; ที่ปุ่มสีเขียวที่มีขีดเพื่อซูมออก; หรือที่ลูกศรสีเขียวเพื่อไปยังแผนที่ที่อยู่ติดกัน.


METAR-TAF: